createdAt,value
2023-03-05T00:01:36.383Z,2.93
2023-03-05T00:04:40.016Z,2.95
2023-03-05T00:07:44.092Z,2.94
2023-03-05T00:10:57.199Z,2.98
2023-03-05T00:14:02.103Z,2.90
2023-03-05T00:17:05.089Z,2.86
2023-03-05T00:20:09.410Z,2.81
2023-03-05T00:23:14.106Z,2.76
2023-03-05T00:26:19.191Z,2.70
2023-03-05T00:29:22.925Z,2.62
2023-03-05T00:32:27.018Z,2.68
2023-03-05T00:35:30.084Z,3.07
2023-03-05T00:38:35.240Z,3.98
2023-03-05T00:41:39.367Z,4.84
2023-03-05T00:44:43.089Z,5.48
2023-03-05T00:47:46.738Z,6.03
2023-03-05T00:50:50.616Z,6.66
2023-03-05T00:53:53.876Z,7.17
2023-03-05T00:56:57.726Z,7.77
2023-03-05T01:00:00.570Z,8.29
2023-03-05T01:03:03.592Z,8.74
2023-03-05T01:06:09.747Z,9.10
2023-03-05T01:09:14.228Z,9.14
2023-03-05T01:12:17.898Z,9.07
2023-03-05T01:15:21.937Z,9.10
2023-03-05T01:18:25.245Z,8.99
2023-03-05T01:21:29.465Z,8.94
2023-03-05T01:24:33.338Z,8.74
2023-03-05T01:27:37.915Z,8.72
2023-03-05T01:30:41.604Z,8.58
2023-03-05T01:33:45.531Z,8.72
2023-03-05T01:36:51.067Z,8.73
2023-03-05T01:39:55.194Z,8.71
2023-03-05T01:43:22.541Z,9.04
2023-03-05T01:46:28.830Z,8.89
2023-03-05T01:49:39.332Z,8.80
2023-03-05T01:53:08.396Z,8.91
2023-03-05T01:56:12.435Z,8.98
2023-03-05T01:59:16.654Z,8.90
2023-03-05T02:02:22.714Z,8.58
2023-03-05T02:05:32.278Z,8.82
2023-03-05T02:08:36.522Z,8.73
2023-03-05T02:11:41.058Z,8.59
2023-03-05T02:14:47.876Z,8.72
2023-03-05T02:17:51.861Z,8.79
2023-03-05T02:20:58.605Z,8.44
2023-03-05T02:24:01.475Z,8.05
2023-03-05T02:27:06.892Z,8.42
2023-03-05T02:30:10.546Z,8.95
2023-03-05T02:33:18.178Z,9.19
2023-03-05T02:36:22.670Z,8.80
2023-03-05T02:39:26.040Z,8.60
2023-03-05T02:42:31.959Z,9.06
2023-03-05T02:45:36.998Z,9.27
2023-03-05T02:48:41.111Z,9.30
2023-03-05T02:51:47.266Z,9.42
2023-03-05T02:54:51.453Z,9.77
2023-03-05T02:57:54.752Z,10.11
2023-03-05T03:00:58.955Z,10.31
2023-03-05T03:04:01.958Z,10.34
2023-03-05T03:07:05.256Z,10.26
2023-03-05T03:10:09.672Z,10.21
2023-03-05T03:13:13.152Z,9.79
2023-03-05T03:16:18.128Z,9.39
2023-03-05T03:19:21.753Z,9.43
2023-03-05T03:22:25.412Z,9.31
2023-03-05T03:25:28.991Z,9.22
2023-03-05T03:28:32.647Z,9.33
2023-03-05T03:31:36.387Z,9.26
2023-03-05T03:34:40.051Z,9.05
2023-03-05T03:37:44.059Z,8.76
2023-03-05T03:40:47.727Z,8.52
2023-03-05T03:43:51.002Z,8.30
2023-03-05T03:46:57.201Z,8.05
2023-03-05T03:50:00.242Z,8.14
2023-03-05T03:53:03.874Z,8.21
2023-03-05T03:56:07.941Z,8.21
2023-03-05T03:59:11.822Z,8.18
2023-03-05T04:02:16.025Z,8.19
2023-03-05T04:05:19.809Z,8.33
2023-03-05T04:08:23.550Z,8.12
2023-03-05T04:11:27.272Z,7.54
2023-03-05T04:14:31.268Z,7.50
2023-03-05T04:17:34.978Z,7.29
2023-03-05T04:20:38.537Z,7.32
2023-03-05T04:23:42.676Z,7.47
2023-03-05T04:26:46.258Z,7.65
2023-03-05T04:29:49.824Z,7.81
2023-03-05T04:32:53.153Z,7.76
2023-03-05T04:35:56.858Z,7.74
2023-03-05T04:39:00.839Z,7.69
2023-03-05T04:42:04.615Z,7.69
2023-03-05T04:45:09.527Z,7.68
2023-03-05T04:48:13.255Z,7.44
2023-03-05T04:51:17.341Z,7.10
2023-03-05T04:54:21.125Z,7.12
2023-03-05T04:57:24.791Z,6.94
2023-03-05T05:01:25.998Z,6.89
2023-03-05T05:04:31.152Z,6.81
2023-03-05T05:07:34.652Z,6.86
2023-03-05T05:10:42.413Z,6.99
2023-03-05T05:13:45.252Z,6.72
2023-03-05T05:16:49.080Z,6.50
2023-03-05T05:19:53.111Z,6.52
2023-03-05T05:22:56.867Z,6.46
2023-03-05T05:26:03.238Z,6.49
2023-03-05T05:29:06.282Z,6.50
2023-03-05T05:32:09.637Z,6.36
2023-03-05T05:35:12.823Z,6.39
2023-03-05T05:38:16.344Z,6.56
2023-03-05T05:41:20.572Z,6.50
2023-03-05T05:44:24.285Z,6.64
2023-03-05T05:47:27.247Z,6.79
2023-03-05T05:50:30.853Z,6.95
2023-03-05T05:53:34.702Z,6.63
2023-03-05T05:56:38.786Z,6.50
2023-03-05T05:59:42.482Z,6.41
2023-03-05T06:02:46.452Z,6.48
2023-03-05T06:05:49.726Z,6.50
2023-03-05T06:08:53.347Z,6.23
2023-03-05T06:11:56.511Z,6.11
2023-03-05T06:15:00.413Z,6.37
2023-03-05T06:18:03.404Z,6.38
2023-03-05T06:21:10.254Z,6.47
2023-03-05T06:24:14.395Z,6.40
2023-03-05T06:30:45.119Z,6.05
2023-03-05T06:33:48.371Z,5.86
2023-03-05T06:36:51.704Z,6.00
2023-03-05T06:39:54.879Z,5.86
2023-03-05T06:42:58.686Z,5.64
2023-03-05T06:46:05.423Z,5.54
2023-03-05T06:49:09.999Z,5.68
2023-03-05T06:52:13.730Z,5.90
2023-03-05T06:55:16.626Z,5.98
2023-03-05T06:58:21.098Z,5.95
2023-03-05T07:01:24.539Z,6.01
2023-03-05T07:04:28.451Z,6.13
2023-03-05T07:07:32.837Z,6.36
2023-03-05T07:10:44.770Z,6.43
2023-03-05T07:13:51.350Z,6.36
2023-03-05T07:16:55.299Z,6.24
2023-03-05T07:19:58.438Z,6.18
2023-03-05T07:23:02.274Z,6.03
2023-03-05T07:26:07.129Z,5.97
2023-03-05T07:29:11.218Z,6.05
2023-03-05T07:32:14.090Z,6.14
2023-03-05T07:35:17.423Z,6.14
2023-03-05T07:38:21.037Z,5.88
2023-03-05T07:41:24.259Z,5.79
2023-03-05T07:44:27.917Z,5.89
2023-03-05T07:47:31.594Z,5.83
2023-03-05T07:50:35.241Z,5.83
2023-03-05T07:53:38.390Z,5.74
2023-03-05T07:56:42.024Z,5.54
2023-03-05T07:59:45.786Z,5.53
2023-03-05T08:02:50.716Z,5.46
2023-03-05T08:05:54.411Z,5.45
2023-03-05T08:08:59.571Z,5.62
2023-03-05T08:12:07.006Z,5.63
2023-03-05T08:15:11.201Z,5.63
2023-03-05T08:18:14.792Z,5.27
2023-03-05T08:21:23.201Z,5.35
2023-03-05T08:24:30.361Z,5.43
2023-03-05T08:27:34.267Z,5.44
2023-03-05T08:30:38.014Z,5.23
2023-03-05T08:33:41.330Z,5.00
2023-03-05T08:36:45.070Z,4.85
2023-03-05T08:39:48.040Z,4.82
2023-03-05T08:42:52.963Z,4.75
2023-03-05T08:45:56.635Z,4.71
2023-03-05T08:49:00.741Z,4.78
2023-03-05T08:52:04.570Z,4.77
2023-03-05T08:55:09.407Z,4.92
2023-03-05T08:58:15.286Z,5.04
2023-03-05T09:01:19.344Z,4.95
2023-03-05T09:04:22.310Z,4.86
2023-03-05T09:07:50.682Z,4.73
2023-03-05T09:10:54.402Z,4.65
2023-03-05T09:13:58.175Z,4.59
2023-03-05T09:17:02.964Z,4.47
2023-03-05T09:20:07.999Z,4.30
2023-03-05T09:23:11.646Z,4.18
2023-03-05T09:26:16.994Z,4.12
2023-03-05T09:29:20.618Z,4.02
2023-03-05T09:32:24.698Z,3.86
2023-03-05T09:35:28.865Z,3.66
2023-03-05T09:38:33.003Z,3.58
2023-03-05T09:41:55.658Z,3.55
2023-03-05T09:45:14.754Z,3.28
2023-03-05T09:48:40.258Z,3.12
2023-03-05T09:51:47.332Z,3.02
2023-03-05T09:54:57.232Z,3.01
2023-03-05T09:58:59.995Z,2.91
2023-03-05T10:02:18.014Z,2.75
2023-03-05T10:05:29.560Z,2.69
2023-03-05T10:08:48.024Z,2.67
2023-03-05T10:12:11.647Z,2.60
2023-03-05T10:15:20.414Z,2.49
2023-03-05T10:18:42.901Z,2.38
2023-03-05T10:21:53.455Z,2.34
2023-03-05T10:25:05.550Z,2.33
2023-03-05T10:28:44.004Z,2.28
2023-03-05T10:32:08.265Z,2.13
2023-03-05T10:35:49.487Z,2.06
2023-03-05T10:39:28.680Z,2.00
2023-03-05T10:42:41.636Z,2.01
2023-03-05T10:45:48.254Z,1.99
2023-03-05T10:48:59.763Z,1.92
2023-03-05T10:52:18.538Z,1.85
2023-03-05T10:55:23.229Z,1.85
2023-03-05T10:58:27.290Z,1.83
2023-03-05T11:01:32.412Z,1.68
2023-03-05T11:04:39.752Z,1.66
2023-03-05T11:07:43.184Z,1.60
2023-03-05T11:10:47.292Z,1.66
2023-03-05T11:13:59.883Z,1.66
2023-03-05T11:17:24.961Z,1.62
2023-03-05T11:20:27.970Z,1.56
2023-03-05T11:23:32.114Z,1.56
2023-03-05T11:26:36.414Z,1.45
2023-03-05T11:30:19.249Z,1.32
2023-03-05T11:33:24.132Z,1.13
2023-03-05T11:36:30.826Z,1.15
2023-03-05T11:39:38.831Z,1.24
2023-03-05T11:42:43.644Z,1.27
2023-03-05T11:45:50.459Z,1.23
2023-03-05T11:48:55.480Z,1.20
2023-03-05T11:52:07.479Z,1.27
2023-03-05T11:55:23.910Z,1.13
2023-03-05T11:58:29.823Z,1.09
2023-03-05T12:01:41.552Z,1.06
2023-03-05T12:04:45.642Z,0.99
2023-03-05T12:07:52.483Z,0.86
2023-03-05T12:10:55.820Z,0.67
2023-03-05T12:14:07.339Z,0.57
2023-03-05T12:17:19.701Z,0.39
2023-03-05T12:20:37.322Z,0.39
2023-03-05T12:23:52.871Z,0.26
2023-03-05T12:27:08.094Z,0.18
2023-03-05T12:30:37.866Z,0.13
2023-03-05T12:33:43.598Z,-0.06
2023-03-05T12:36:46.530Z,-0.08
2023-03-05T12:40:01.986Z,-0.18
2023-03-05T12:43:07.101Z,-0.32
2023-03-05T12:46:33.820Z,-0.41
2023-03-05T12:49:41.306Z,-0.45
2023-03-05T12:52:47.168Z,-0.59
2023-03-05T12:56:19.826Z,-0.64
2023-03-05T12:59:30.845Z,-0.78
2023-03-05T13:02:44.032Z,-0.88
2023-03-05T13:05:55.853Z,-0.86
2023-03-05T13:09:14.847Z,-0.93
2023-03-05T13:12:19.167Z,-0.93
2023-03-05T13:15:25.098Z,-1.02
2023-03-05T13:18:31.494Z,-1.02
2023-03-05T13:21:36.020Z,-1.03
2023-03-05T13:24:39.688Z,-1.03
2023-03-05T13:27:44.468Z,-1.08
2023-03-05T13:30:58.024Z,-1.08
2023-03-05T13:34:18.938Z,-1.12
2023-03-05T13:37:25.824Z,-1.27
2023-03-05T13:40:32.279Z,-1.32
2023-03-05T13:43:44.299Z,-1.27
2023-03-05T13:46:49.038Z,-1.44
2023-03-05T13:50:06.757Z,-1.47
2023-03-05T13:53:30.124Z,-1.60
2023-03-05T13:56:33.363Z,-1.81
2023-03-05T13:59:39.850Z,-1.86
2023-03-05T14:02:45.127Z,-1.84
2023-03-05T14:05:50.519Z,-1.76
2023-03-05T14:09:02.745Z,-1.68
2023-03-05T14:12:15.587Z,-1.59
2023-03-05T14:15:29.999Z,-1.70
2023-03-05T14:18:34.159Z,-1.76
2023-03-05T14:21:51.503Z,-1.87
2023-03-05T14:24:54.576Z,-1.82
2023-03-05T14:27:59.329Z,-1.86
2023-03-05T14:31:02.573Z,-1.88
2023-03-05T14:34:08.059Z,-1.94
2023-03-05T14:37:25.748Z,-1.97
2023-03-05T14:40:34.098Z,-2.09
2023-03-05T14:43:37.490Z,-2.11
2023-03-05T14:46:42.532Z,-2.18
2023-03-05T14:49:46.311Z,-2.22
2023-03-05T14:52:54.237Z,-2.20
2023-03-05T14:55:58.248Z,-2.25
2023-03-05T14:59:02.370Z,-2.23
2023-03-05T15:02:14.535Z,-2.33
2023-03-05T15:05:18.895Z,-2.43
2023-03-05T15:08:32.897Z,-2.46
2023-03-05T15:11:37.144Z,-2.51
2023-03-05T15:14:42.696Z,-2.46
2023-03-05T15:17:48.854Z,-2.49
2023-03-05T15:20:56.690Z,-2.61
2023-03-05T15:24:00.650Z,-2.69
2023-03-05T15:27:04.290Z,-2.76
2023-03-05T15:30:27.818Z,-2.80
2023-03-05T15:33:31.741Z,-2.93
2023-03-05T15:36:36.006Z,-2.95
2023-03-05T15:39:39.727Z,-2.90
2023-03-05T15:42:43.056Z,-2.87
2023-03-05T15:45:47.186Z,-2.93
2023-03-05T15:48:50.852Z,-3.09
2023-03-05T15:51:55.674Z,-3.18
2023-03-05T15:54:58.930Z,-3.20
2023-03-05T15:58:01.894Z,-3.15
2023-03-05T16:01:05.004Z,-3.15
2023-03-05T16:04:08.558Z,-3.26
2023-03-05T16:07:13.465Z,-3.32
2023-03-05T16:10:22.187Z,-3.27
2023-03-05T16:13:30.179Z,-3.31
2023-03-05T16:16:34.899Z,-3.36
2023-03-05T16:19:43.563Z,-3.36
2023-03-05T16:22:47.327Z,-3.39
2023-03-05T16:25:53.683Z,-3.46
2023-03-05T16:28:57.498Z,-3.53
2023-03-05T16:32:03.173Z,-3.52
2023-03-05T16:35:07.131Z,-3.54
2023-03-05T16:38:10.180Z,-3.55
2023-03-05T16:41:16.999Z,-3.70
2023-03-05T16:44:23.113Z,-3.76
2023-03-05T16:47:26.076Z,-3.86
2023-03-05T16:50:29.159Z,-3.98
2023-03-05T16:53:33.456Z,-4.10
2023-03-05T16:56:37.468Z,-4.20
2023-03-05T16:59:40.756Z,-4.16
2023-03-05T17:02:46.207Z,-4.16
2023-03-05T17:05:49.519Z,-4.22
2023-03-05T17:08:53.276Z,-4.32
2023-03-05T17:11:57.439Z,-4.34
2023-03-05T17:15:07.093Z,-4.40
2023-03-05T17:18:10.544Z,-4.37
2023-03-05T17:21:14.011Z,-4.36
2023-03-05T17:24:17.066Z,-4.34
2023-03-05T17:27:20.954Z,-4.31
2023-03-05T17:30:24.658Z,-4.40
2023-03-05T17:33:32.634Z,-4.50
2023-03-05T17:36:36.498Z,-4.60
2023-03-05T17:39:43.169Z,-4.56
2023-03-05T17:42:46.087Z,-4.48
2023-03-05T17:45:50.187Z,-4.47
2023-03-05T17:48:53.080Z,-4.62
2023-03-05T17:51:56.878Z,-4.64
2023-03-05T17:55:00.802Z,-4.64
2023-03-05T17:58:04.201Z,-4.62
2023-03-05T18:01:08.918Z,-4.58
2023-03-05T18:04:11.991Z,-4.58
2023-03-05T18:07:15.088Z,-4.56
2023-03-05T18:10:19.486Z,-4.63
2023-03-05T18:13:23.134Z,-4.72
2023-03-05T18:16:27.247Z,-4.77
2023-03-05T18:19:30.842Z,-4.79
2023-03-05T18:22:34.283Z,-4.79
2023-03-05T18:25:37.208Z,-4.73
2023-03-05T18:28:40.694Z,-4.71
2023-03-05T18:31:44.447Z,-4.72
2023-03-05T18:34:50.501Z,-4.68
2023-03-05T18:37:53.506Z,-4.67
2023-03-05T18:40:57.846Z,-4.84
2023-03-05T18:44:02.291Z,-5.02
2023-03-05T18:47:05.243Z,-5.07
2023-03-05T18:50:17.393Z,-5.14
2023-03-05T18:53:22.426Z,-5.17
2023-03-05T18:56:25.870Z,-5.17
2023-03-05T18:59:30.538Z,-5.23
2023-03-05T19:02:35.060Z,-5.30
2023-03-05T19:05:39.650Z,-5.34
2023-03-05T19:08:42.864Z,-5.33
2023-03-05T19:11:47.436Z,-5.31
2023-03-05T19:14:51.490Z,-5.31
2023-03-05T19:17:56.461Z,-5.31
2023-03-05T19:20:59.804Z,-5.31
2023-03-05T19:24:02.944Z,-5.27
2023-03-05T19:27:11.954Z,-5.36
2023-03-05T19:30:17.101Z,-5.45
2023-03-05T19:33:20.802Z,-5.51
2023-03-05T19:36:24.324Z,-5.53
2023-03-05T19:39:27.404Z,-5.62
2023-03-05T19:42:31.422Z,-5.57
2023-03-05T19:45:35.786Z,-5.52
2023-03-05T19:48:40.341Z,-5.53
2023-03-05T19:51:45.385Z,-5.49
2023-03-05T19:54:49.444Z,-5.52
2023-03-05T19:57:52.311Z,-5.52
2023-03-05T20:00:56.281Z,-5.61
2023-03-05T20:04:01.665Z,-5.71
2023-03-05T20:07:07.696Z,-5.79
2023-03-05T20:10:11.327Z,-5.75
2023-03-05T20:13:14.372Z,-5.81
2023-03-05T20:16:22.554Z,-5.80
2023-03-05T20:19:27.007Z,-5.76
2023-03-05T20:22:30.706Z,-5.84
2023-03-05T20:25:35.709Z,-5.78
2023-03-05T20:28:38.698Z,-5.77
2023-03-05T20:31:43.361Z,-5.89
2023-03-05T20:34:50.756Z,-5.96
2023-03-05T20:38:20.950Z,-5.98
2023-03-05T20:41:24.842Z,-6.08
2023-03-05T20:44:28.484Z,-6.16
2023-03-05T20:47:46.558Z,-6.13
2023-03-05T20:50:49.874Z,-6.08
2023-03-05T20:53:58.431Z,-6.11
2023-03-05T20:57:01.709Z,-6.13
2023-03-05T21:00:05.684Z,-6.14
2023-03-05T21:03:10.039Z,-6.15
2023-03-05T21:06:13.014Z,-6.19
2023-03-05T21:09:17.000Z,-6.25
2023-03-05T21:12:20.674Z,-6.38
2023-03-05T21:15:27.602Z,-6.54
2023-03-05T21:18:31.746Z,-6.66
2023-03-05T21:21:34.964Z,-6.61
2023-03-05T21:24:54.077Z,-6.59
2023-03-05T21:28:05.202Z,-6.44
2023-03-05T21:31:16.664Z,-6.33
2023-03-05T21:34:20.618Z,-6.34
2023-03-05T21:37:23.496Z,-6.32
2023-03-05T21:40:27.964Z,-6.43
2023-03-05T21:43:31.796Z,-6.51
2023-03-05T21:46:35.994Z,-6.51
2023-03-05T21:49:38.948Z,-6.57
2023-03-05T21:52:42.945Z,-6.59
2023-03-05T21:56:05.834Z,-6.54
2023-03-05T21:59:08.793Z,-6.44
2023-03-05T22:02:17.519Z,-6.46
2023-03-05T22:05:21.109Z,-6.46
2023-03-05T22:08:25.308Z,-6.53
2023-03-05T22:11:28.544Z,-6.65
2023-03-05T22:14:32.166Z,-6.82
2023-03-05T22:17:35.112Z,-6.98
2023-03-05T22:20:38.902Z,-7.26
2023-03-05T22:23:42.160Z,-7.30
2023-03-05T22:26:45.051Z,-7.35
2023-03-05T22:29:48.349Z,-7.18
2023-03-05T22:32:51.722Z,-6.97
2023-03-05T22:35:55.540Z,-6.85
2023-03-05T22:38:58.552Z,-6.76
2023-03-05T22:42:01.942Z,-6.72
2023-03-05T22:45:05.219Z,-6.66
2023-03-05T22:48:12.148Z,-6.56
2023-03-05T22:51:16.909Z,-6.59
2023-03-05T22:54:19.927Z,-6.65
2023-03-05T22:57:22.905Z,-6.65
2023-03-05T23:00:27.216Z,-6.71
2023-03-05T23:03:30.663Z,-6.64
2023-03-05T23:06:34.325Z,-6.75
2023-03-05T23:09:38.108Z,-6.78
2023-03-05T23:12:47.415Z,-6.90
2023-03-05T23:15:50.321Z,-7.09
2023-03-05T23:18:55.035Z,-7.17
2023-03-05T23:21:58.114Z,-7.21
2023-03-05T23:25:01.741Z,-7.19
2023-03-05T23:28:05.623Z,-7.07
2023-03-05T23:31:09.743Z,-7.01
2023-03-05T23:34:12.715Z,-6.86
2023-03-05T23:37:16.298Z,-6.81
2023-03-05T23:40:26.030Z,-6.80
2023-03-05T23:43:30.330Z,-6.66
2023-03-05T23:46:34.405Z,-6.58
2023-03-05T23:49:38.427Z,-6.58
2023-03-05T23:52:43.408Z,-6.46
2023-03-05T23:55:47.736Z,-6.56
2023-03-05T23:58:51.311Z,-6.58
